Herselt, Belgium
Current Conditions -  °F | °C
As of 8:25 AM on Wednesday 26 Nov 2014 (Local Time) from EBDT Reporting Station
Light Rain Light Rain  
Wind Chill: 38°   Ceiling: 10000
Heat Index: 41°   Visibility: 6mi
Dew Point: 39°   Wind: 5mph
Humidity: 93%   Direction: 90°E
Pressure: 29.94"   Gusts: NA
Location:  51.05°N, 4.88°E
Report Text: EBDT 260725Z 09004KT 9000 -RA SCT070 BKN100 05/04 Q1014 BLU BLU TEMPO WHT
Loading
Personal Weather Stations






























Interactive Weather Map New forecast layout! Learn more

10-Day Weather Forecast

Advertisements
Track Severe Weather on mobile